sensor_id;sensor_type;location;lat;lon;timestamp;pressure;altitude;pressure_sealevel;temperature;humidity
58473;BME280;44775;51.564;5.460;2023-02-01T00:01:48;101781.53;;;4.00;100.00
58473;BME280;44775;51.564;5.460;2023-02-01T00:04:13;101782.03;;;3.92;100.00
58473;BME280;44775;51.564;5.460;2023-02-01T00:06:39;101786.56;;;3.90;100.00
58473;BME280;44775;51.564;5.460;2023-02-01T00:09:04;101788.19;;;3.93;100.00
58473;BME280;44775;51.564;5.460;2023-02-01T00:11:30;101785.19;;;3.85;100.00
58473;BME280;44775;51.564;5.460;2023-02-01T00:13:56;101791.03;;;3.90;100.00
58473;BME280;44775;51.564;5.460;2023-02-01T00:16:24;101775.91;;;3.92;100.00
58473;BME280;44775;51.564;5.460;2023-02-01T00:18:56;101764.78;;;3.87;100.00
58473;BME280;44775;51.564;5.460;2023-02-01T00:21:22;101746.19;;;3.88;100.00
58473;BME280;44775;51.564;5.460;2023-02-01T00:23:48;101749.69;;;3.89;100.00
58473;BME280;44775;51.564;5.460;2023-02-01T00:26:25;101760.06;;;3.92;100.00
58473;BME280;44775;51.564;5.460;2023-02-01T00:28:50;101755.38;;;4.08;100.00
58473;BME280;44775;51.564;5.460;2023-02-01T00:31:16;101738.78;;;3.93;100.00
58473;BME280;44775;51.564;5.460;2023-02-01T00:33:41;101738.69;;;4.08;100.00
58473;BME280;44775;51.564;5.460;2023-02-01T00:36:08;101741.44;;;4.06;100.00
58473;BME280;44775;51.564;5.460;2023-02-01T00:38:36;101753.91;;;4.04;100.00
58473;BME280;44775;51.564;5.460;2023-02-01T00:41:06;101746.53;;;4.09;100.00
58473;BME280;44775;51.564;5.460;2023-02-01T00:43:33;101751.84;;;4.22;100.00
58473;BME280;44775;51.564;5.460;2023-02-01T00:45:59;101758.16;;;4.07;100.00
58473;BME280;44775;51.564;5.460;2023-02-01T00:48:25;101752.09;;;4.05;100.00
58473;BME280;44775;51.564;5.460;2023-02-01T00:50:51;101749.16;;;3.96;100.00
58473;BME280;44775;51.564;5.460;2023-02-01T00:53:16;101750.09;;;3.95;100.00
58473;BME280;44775;51.564;5.460;2023-02-01T00:55:46;101748.41;;;3.94;100.00
58473;BME280;44775;51.564;5.460;2023-02-01T00:58:12;101760.91;;;4.05;100.00
58473;BME280;44775;51.564;5.460;2023-02-01T01:00:37;101761.63;;;3.94;100.00
58473;BME280;44775;51.564;5.460;2023-02-01T01:03:03;101761.53;;;3.96;100.00
58473;BME280;44775;51.564;5.460;2023-02-01T01:05:45;101748.16;;;3.85;100.00
58473;BME280;44775;51.564;5.460;2023-02-01T01:08:11;101762.41;;;4.09;100.00
58473;BME280;44775;51.564;5.460;2023-02-01T01:10:37;101764.69;;;4.01;100.00
58473;BME280;44775;51.564;5.460;2023-02-01T01:13:02;101762.13;;;3.87;100.00
58473;BME280;44775;51.564;5.460;2023-02-01T01:15:28;101771.88;;;3.86;100.00
58473;BME280;44775;51.564;5.460;2023-02-01T01:17:53;101768.47;;;3.84;100.00
58473;BME280;44775;51.564;5.460;2023-02-01T01:20:19;101762.25;;;3.85;100.00
58473;BME280;44775;51.564;5.460;2023-02-01T01:22:47;101757.25;;;3.81;100.00
58473;BME280;44775;51.564;5.460;2023-02-01T01:25:12;101760.75;;;3.81;100.00
58473;BME280;44775;51.564;5.460;2023-02-01T01:27:38;101738.88;;;3.79;100.00
58473;BME280;44775;51.564;5.460;2023-02-01T01:30:04;101747.09;;;3.74;100.00
58473;BME280;44775;51.564;5.460;2023-02-01T01:32:30;101749.09;;;3.71;100.00
58473;BME280;44775;51.564;5.460;2023-02-01T01:34:55;101751.53;;;3.74;100.00
58473;BME280;44775;51.564;5.460;2023-02-01T01:37:21;101754.94;;;3.76;100.00
58473;BME280;44775;51.564;5.460;2023-02-01T01:39:46;101759.97;;;3.66;100.00
58473;BME280;44775;51.564;5.460;2023-02-01T01:42:12;101757.66;;;3.62;100.00
58473;BME280;44775;51.564;5.460;2023-02-01T01:47:33;101758.94;;;3.69;100.00
58473;BME280;44775;51.564;5.460;2023-02-01T01:50:00;101755.28;;;3.57;100.00
58473;BME280;44775;51.564;5.460;2023-02-01T01:52:26;101755.81;;;3.49;100.00
58473;BME280;44775;51.564;5.460;2023-02-01T01:54:53;101764.69;;;3.48;100.00
58473;BME280;44775;51.564;5.460;2023-02-01T01:57:32;101763.72;;;3.49;100.00
58473;BME280;44775;51.564;5.460;2023-02-01T02:00:07;101775.34;;;3.47;100.00
58473;BME280;44775;51.564;5.460;2023-02-01T02:02:34;101771.31;;;3.41;100.00
58473;BME280;44775;51.564;5.460;2023-02-01T02:05:01;101765.66;;;3.33;100.00
58473;BME280;44775;51.564;5.460;2023-02-01T02:07:30;101767.16;;;3.37;100.00
58473;BME280;44775;51.564;5.460;2023-02-01T02:09:57;101763.28;;;3.43;100.00
58473;BME280;44775;51.564;5.460;2023-02-01T02:12:22;101756.50;;;3.39;100.00
58473;BME280;44775;51.564;5.460;2023-02-01T02:14:48;101756.25;;;3.29;100.00
58473;BME280;44775;51.564;5.460;2023-02-01T02:17:34;101744.72;;;3.30;100.00
58473;BME280;44775;51.564;5.460;2023-02-01T02:20:22;101744.47;;;3.47;100.00
58473;BME280;44775;51.564;5.460;2023-02-01T02:23:07;101726.69;;;3.37;100.00
58473;BME280;44775;51.564;5.460;2023-02-01T02:26:08;101723.97;;;3.38;100.00
58473;BME280;44775;51.564;5.460;2023-02-01T02:37:19;101716.16;;;3.49;100.00
58473;BME280;44775;51.564;5.460;2023-02-01T02:45:47;101714.16;;;3.53;100.00
58473;BME280;44775;51.564;5.460;2023-02-01T02:48:47;101716.84;;;3.66;100.00
58473;BME280;44775;51.564;5.460;2023-02-01T02:51:50;101718.66;;;3.65;100.00
58473;BME280;44775;51.564;5.460;2023-02-01T02:54:36;101721.38;;;3.64;100.00
58473;BME280;44775;51.564;5.460;2023-02-01T02:57:14;101717.16;;;3.61;100.00
58473;BME280;44775;51.564;5.460;2023-02-01T03:00:00;101723.72;;;3.81;100.00
58473;BME280;44775;51.564;5.460;2023-02-01T03:02:46;101713.44;;;3.64;100.00
58473;BME280;44775;51.564;5.460;2023-02-01T03:05:36;101705.00;;;3.59;100.00
58473;BME280;44775;51.564;5.460;2023-02-01T03:08:05;101697.56;;;3.51;100.00
58473;BME280;44775;51.564;5.460;2023-02-01T03:13:57;101702.09;;;3.49;100.00
58473;BME280;44775;51.564;5.460;2023-02-01T03:16:24;101692.69;;;3.45;100.00
58473;BME280;44775;51.564;5.460;2023-02-01T03:18:59;101690.78;;;3.47;100.00
58473;BME280;44775;51.564;5.460;2023-02-01T03:24:02;101703.25;;;3.45;100.00
58473;BME280;44775;51.564;5.460;2023-02-01T03:26:31;101706.44;;;3.50;100.00
58473;BME280;44775;51.564;5.460;2023-02-01T03:29:05;101699.16;;;3.53;100.00
58473;BME280;44775;51.564;5.460;2023-02-01T03:31:32;101694.81;;;3.52;100.00
58473;BME280;44775;51.564;5.460;2023-02-01T03:33:58;101683.53;;;3.63;100.00
58473;BME280;44775;51.564;5.460;2023-02-01T03:36:29;101683.00;;;3.71;100.00
58473;BME280;44775;51.564;5.460;2023-02-01T03:46:54;101679.22;;;3.75;100.00
58473;BME280;44775;51.564;5.460;2023-02-01T03:49:42;101666.31;;;3.83;100.00
58473;BME280;44775;51.564;5.460;2023-02-01T03:52:13;101662.00;;;3.95;100.00
58473;BME280;44775;51.564;5.460;2023-02-01T03:54:40;101668.63;;;3.88;100.00
58473;BME280;44775;51.564;5.460;2023-02-01T03:57:09;101681.22;;;3.84;100.00
58473;BME280;44775;51.564;5.460;2023-02-01T03:59:42;101680.59;;;3.81;100.00
58473;BME280;44775;51.564;5.460;2023-02-01T04:02:08;101666.75;;;3.90;100.00
58473;BME280;44775;51.564;5.460;2023-02-01T04:04:34;101674.78;;;3.88;100.00
58473;BME280;44775;51.564;5.460;2023-02-01T04:07:00;101669.50;;;3.88;100.00
58473;BME280;44775;51.564;5.460;2023-02-01T04:09:25;101667.78;;;3.87;100.00
58473;BME280;44775;51.564;5.460;2023-02-01T04:11:51;101666.75;;;3.90;100.00
58473;BME280;44775;51.564;5.460;2023-02-01T04:14:16;101669.38;;;3.90;100.00
58473;BME280;44775;51.564;5.460;2023-02-01T04:16:42;101680.19;;;4.12;100.00
58473;BME280;44775;51.564;5.460;2023-02-01T04:19:07;101675.09;;;4.09;100.00
58473;BME280;44775;51.564;5.460;2023-02-01T04:21:33;101671.06;;;3.91;100.00
58473;BME280;44775;51.564;5.460;2023-02-01T04:23:58;101672.75;;;4.05;100.00
58473;BME280;44775;51.564;5.460;2023-02-01T04:26:24;101675.53;;;4.03;100.00
58473;BME280;44775;51.564;5.460;2023-02-01T04:28:49;101676.34;;;3.91;100.00
58473;BME280;44775;51.564;5.460;2023-02-01T04:31:16;101671.28;;;4.00;100.00
58473;BME280;44775;51.564;5.460;2023-02-01T04:33:42;101678.28;;;3.89;100.00
58473;BME280;44775;51.564;5.460;2023-02-01T04:36:09;101695.84;;;4.02;100.00
58473;BME280;44775;51.564;5.460;2023-02-01T04:38:34;101676.16;;;4.07;100.00
58473;BME280;44775;51.564;5.460;2023-02-01T04:41:00;101665.50;;;3.95;100.00
58473;BME280;44775;51.564;5.460;2023-02-01T04:43:25;101665.56;;;3.94;100.00
58473;BME280;44775;51.564;5.460;2023-02-01T04:45:51;101673.06;;;3.87;100.00
58473;BME280;44775;51.564;5.460;2023-02-01T04:48:18;101687.34;;;3.85;100.00
58473;BME280;44775;51.564;5.460;2023-02-01T04:50:45;101689.06;;;3.98;100.00
58473;BME280;44775;51.564;5.460;2023-02-01T04:53:16;101692.97;;;3.93;100.00
58473;BME280;44775;51.564;5.460;2023-02-01T04:55:42;101700.88;;;3.80;100.00
58473;BME280;44775;51.564;5.460;2023-02-01T04:58:08;101693.16;;;3.77;100.00
58473;BME280;44775;51.564;5.460;2023-02-01T05:00:34;101695.41;;;3.83;100.00
58473;BME280;44775;51.564;5.460;2023-02-01T05:02:59;101691.38;;;3.77;100.00
58473;BME280;44775;51.564;5.460;2023-02-01T05:05:26;101693.38;;;3.74;100.00
58473;BME280;44775;51.564;5.460;2023-02-01T05:07:51;101694.56;;;3.83;100.00
58473;BME280;44775;51.564;5.460;2023-02-01T05:10:17;101694.88;;;3.78;100.00
58473;BME280;44775;51.564;5.460;2023-02-01T05:12:43;101695.19;;;3.86;100.00
58473;BME280;44775;51.564;5.460;2023-02-01T05:15:28;101685.38;;;3.88;100.00
58473;BME280;44775;51.564;5.460;2023-02-01T05:17:53;101682.31;;;3.82;100.00
58473;BME280;44775;51.564;5.460;2023-02-01T05:20:19;101678.56;;;3.84;100.00
58473;BME280;44775;51.564;5.460;2023-02-01T05:22:44;101678.06;;;3.92;100.00
58473;BME280;44775;51.564;5.460;2023-02-01T05:25:09;101679.75;;;3.93;100.00
58473;BME280;44775;51.564;5.460;2023-02-01T05:27:35;101680.91;;;4.01;100.00
58473;BME280;44775;51.564;5.460;2023-02-01T05:30:03;101670.31;;;4.01;100.00
58473;BME280;44775;51.564;5.460;2023-02-01T05:32:29;101661.66;;;3.99;100.00
58473;BME280;44775;51.564;5.460;2023-02-01T05:34:54;101665.69;;;4.05;100.00
58473;BME280;44775;51.564;5.460;2023-02-01T05:37:20;101661.34;;;4.04;100.00
58473;BME280;44775;51.564;5.460;2023-02-01T05:39:45;101665.47;;;4.08;100.00
58473;BME280;44775;51.564;5.460;2023-02-01T05:42:10;101669.06;;;4.07;100.00
58473;BME280;44775;51.564;5.460;2023-02-01T05:44:36;101673.72;;;4.03;100.00
58473;BME280;44775;51.564;5.460;2023-02-01T05:47:01;101679.75;;;4.06;100.00
58473;BME280;44775;51.564;5.460;2023-02-01T05:49:27;101690.22;;;4.20;100.00
58473;BME280;44775;51.564;5.460;2023-02-01T05:51:52;101689.94;;;4.12;100.00
58473;BME280;44775;51.564;5.460;2023-02-01T05:54:17;101683.69;;;4.13;100.00
58473;BME280;44775;51.564;5.460;2023-02-01T05:56:43;101688.22;;;4.11;100.00
58473;BME280;44775;51.564;5.460;2023-02-01T05:59:09;101690.22;;;4.33;100.00
58473;BME280;44775;51.564;5.460;2023-02-01T06:01:34;101694.44;;;4.35;100.00
58473;BME280;44775;51.564;5.460;2023-02-01T06:04:00;101692.03;;;4.32;100.00
58473;BME280;44775;51.564;5.460;2023-02-01T06:06:25;101690.84;;;4.36;100.00
58473;BME280;44775;51.564;5.460;2023-02-01T06:08:51;101698.16;;;4.33;100.00
58473;BME280;44775;51.564;5.460;2023-02-01T06:11:16;101702.28;;;4.37;100.00
58473;BME280;44775;51.564;5.460;2023-02-01T06:13:42;101703.13;;;4.37;100.00
58473;BME280;44775;51.564;5.460;2023-02-01T06:16:07;101698.78;;;4.36;100.00
58473;BME280;44775;51.564;5.460;2023-02-01T06:18:34;101704.81;;;4.38;100.00
58473;BME280;44775;51.564;5.460;2023-02-01T06:21:00;101688.28;;;4.47;100.00
58473;BME280;44775;51.564;5.460;2023-02-01T06:23:26;101689.97;;;4.48;100.00
58473;BME280;44775;51.564;5.460;2023-02-01T06:25:53;101683.06;;;4.59;100.00
58473;BME280;44775;51.564;5.460;2023-02-01T06:28:24;101689.13;;;4.61;100.00
58473;BME280;44775;51.564;5.460;2023-02-01T06:30:50;101698.22;;;4.69;100.00
58473;BME280;44775;51.564;5.460;2023-02-01T06:33:16;101699.69;;;4.61;100.00
58473;BME280;44775;51.564;5.460;2023-02-01T06:35:42;101695.25;;;4.61;100.00
58473;BME280;44775;51.564;5.460;2023-02-01T06:38:13;101700.75;;;4.71;100.00
58473;BME280;44775;51.564;5.460;2023-02-01T06:40:39;101707.94;;;4.69;100.00
58473;BME280;44775;51.564;5.460;2023-02-01T06:43:05;101704.84;;;4.75;100.00
58473;BME280;44775;51.564;5.460;2023-02-01T06:45:30;101712.38;;;4.81;100.00
58473;BME280;44775;51.564;5.460;2023-02-01T06:47:56;101721.78;;;4.85;100.00
58473;BME280;44775;51.564;5.460;2023-02-01T06:50:23;101719.34;;;4.82;100.00
58473;BME280;44775;51.564;5.460;2023-02-01T06:52:48;101717.84;;;4.91;100.00
58473;BME280;44775;51.564;5.460;2023-02-01T06:55:14;101707.66;;;4.97;100.00
58473;BME280;44775;51.564;5.460;2023-02-01T06:57:39;101721.88;;;4.96;100.00
58473;BME280;44775;51.564;5.460;2023-02-01T07:00:05;101706.59;;;5.00;100.00
58473;BME280;44775;51.564;5.460;2023-02-01T07:02:31;101712.94;;;4.97;100.00
58473;BME280;44775;51.564;5.460;2023-02-01T07:04:56;101706.72;;;4.86;100.00
58473;BME280;44775;51.564;5.460;2023-02-01T07:07:22;101711.38;;;4.95;100.00
58473;BME280;44775;51.564;5.460;2023-02-01T07:09:48;101704.94;;;4.86;100.00
58473;BME280;44775;51.564;5.460;2023-02-01T07:12:14;101711.50;;;4.93;100.00
58473;BME280;44775;51.564;5.460;2023-02-01T07:14:40;101712.13;;;4.97;100.00
58473;BME280;44775;51.564;5.460;2023-02-01T07:17:05;101706.00;;;4.84;100.00
58473;BME280;44775;51.564;5.460;2023-02-01T07:19:31;101704.19;;;4.84;100.00
58473;BME280;44775;51.564;5.460;2023-02-01T07:21:56;101714.44;;;4.89;100.00
58473;BME280;44775;51.564;5.460;2023-02-01T07:24:22;101712.16;;;4.84;100.00
58473;BME280;44775;51.564;5.460;2023-02-01T07:26:47;101712.69;;;4.89;100.00
58473;BME280;44775;51.564;5.460;2023-02-01T07:29:14;101704.06;;;4.86;100.00
58473;BME280;44775;51.564;5.460;2023-02-01T07:31:39;101712.91;;;4.86;100.00
58473;BME280;44775;51.564;5.460;2023-02-01T07:34:04;101704.72;;;4.89;100.00
58473;BME280;44775;51.564;5.460;2023-02-01T07:36:30;101718.69;;;4.91;100.00
58473;BME280;44775;51.564;5.460;2023-02-01T07:38:57;101709.63;;;4.83;100.00
58473;BME280;44775;51.564;5.460;2023-02-01T07:41:22;101718.44;;;5.07;100.00
58473;BME280;44775;51.564;5.460;2023-02-01T07:43:48;101711.16;;;4.98;100.00
58473;BME280;44775;51.564;5.460;2023-02-01T07:46:16;101712.91;;;4.86;100.00
58473;BME280;44775;51.564;5.460;2023-02-01T07:48:41;101723.38;;;4.88;100.00
58473;BME280;44775;51.564;5.460;2023-02-01T07:51:13;101725.78;;;4.91;100.00
58473;BME280;44775;51.564;5.460;2023-02-01T07:53:39;101725.66;;;4.92;100.00
58473;BME280;44775;51.564;5.460;2023-02-01T07:56:11;101725.38;;;4.84;100.00
58473;BME280;44775;51.564;5.460;2023-02-01T07:58:36;101717.66;;;4.81;100.00
58473;BME280;44775;51.564;5.460;2023-02-01T08:01:02;101729.72;;;4.85;100.00
58473;BME280;44775;51.564;5.460;2023-02-01T08:03:50;101731.44;;;4.86;100.00
58473;BME280;44775;51.564;5.460;2023-02-01T08:06:16;101733.09;;;5.00;100.00
58473;BME280;44775;51.564;5.460;2023-02-01T08:08:41;101737.19;;;5.04;100.00
58473;BME280;44775;51.564;5.460;2023-02-01T08:11:10;101735.94;;;5.34;100.00
58473;BME280;44775;51.564;5.460;2023-02-01T08:13:36;101735.78;;;5.11;100.00
58473;BME280;44775;51.564;5.460;2023-02-01T08:16:04;101742.34;;;5.18;100.00
58473;BME280;44775;51.564;5.460;2023-02-01T08:18:30;101748.56;;;5.30;100.00
58473;BME280;44775;51.564;5.460;2023-02-01T08:20:56;101732.19;;;5.36;100.00
58473;BME280;44775;51.564;5.460;2023-02-01T08:23:22;101752.94;;;5.42;100.00
58473;BME280;44775;51.564;5.460;2023-02-01T08:25:48;101754.25;;;5.37;100.00
58473;BME280;44775;51.564;5.460;2023-02-01T08:28:13;101753.78;;;5.43;100.00
58473;BME280;44775;51.564;5.460;2023-02-01T08:30:39;101738.63;;;5.45;100.00
58473;BME280;44775;51.564;5.460;2023-02-01T08:33:05;101739.63;;;5.55;100.00
58473;BME280;44775;51.564;5.460;2023-02-01T08:35:33;101748.78;;;5.51;100.00
58473;BME280;44775;51.564;5.460;2023-02-01T08:37:59;101739.56;;;5.68;100.00
58473;BME280;44775;51.564;5.460;2023-02-01T08:40:24;101743.13;;;5.56;100.00
58473;BME280;44775;51.564;5.460;2023-02-01T08:42:50;101746.78;;;5.66;100.00
58473;BME280;44775;51.564;5.460;2023-02-01T08:45:16;101743.81;;;5.82;100.00
58473;BME280;44775;51.564;5.460;2023-02-01T08:47:42;101738.41;;;5.83;100.00
58473;BME280;44775;51.564;5.460;2023-02-01T08:50:08;101726.31;;;6.03;100.00
58473;BME280;44775;51.564;5.460;2023-02-01T08:52:34;101716.66;;;6.13;100.00
58473;BME280;44775;51.564;5.460;2023-02-01T08:54:59;101721.75;;;6.17;100.00
58473;BME280;44775;51.564;5.460;2023-02-01T08:57:25;101720.06;;;6.15;100.00
58473;BME280;44775;51.564;5.460;2023-02-01T08:59:50;101720.91;;;6.27;100.00
58473;BME280;44775;51.564;5.460;2023-02-01T09:02:16;101738.03;;;6.34;100.00
58473;BME280;44775;51.564;5.460;2023-02-01T09:04:42;101719.22;;;6.37;100.00
58473;BME280;44775;51.564;5.460;2023-02-01T09:07:09;101729.38;;;6.32;100.00
58473;BME280;44775;51.564;5.460;2023-02-01T09:09:34;101724.28;;;6.41;100.00
58473;BME280;44775;51.564;5.460;2023-02-01T09:12:00;101723.13;;;6.45;100.00
58473;BME280;44775;51.564;5.460;2023-02-01T09:14:26;101730.72;;;6.49;100.00
58473;BME280;44775;51.564;5.460;2023-02-01T09:16:51;101726.00;;;6.53;100.00
58473;BME280;44775;51.564;5.460;2023-02-01T09:19:17;101718.50;;;6.47;100.00
58473;BME280;44775;51.564;5.460;2023-02-01T09:21:42;101705.84;;;6.50;100.00
58473;BME280;44775;51.564;5.460;2023-02-01T09:24:10;101702.22;;;6.62;100.00
58473;BME280;44775;51.564;5.460;2023-02-01T09:26:36;101708.84;;;6.57;100.00
58473;BME280;44775;51.564;5.460;2023-02-01T09:29:03;101711.16;;;6.73;100.00
58473;BME280;44775;51.564;5.460;2023-02-01T09:31:29;101713.53;;;6.65;100.00
58473;BME280;44775;51.564;5.460;2023-02-01T09:33:55;101708.00;;;6.79;99.81
58473;BME280;44775;51.564;5.460;2023-02-01T09:36:20;101719.22;;;6.71;100.00
58473;BME280;44775;51.564;5.460;2023-02-01T09:38:46;101724.88;;;6.78;100.00
58473;BME280;44775;51.564;5.460;2023-02-01T09:47:23;101720.41;;;6.90;100.00
58473;BME280;44775;51.564;5.460;2023-02-01T09:52:42;101725.09;;;6.97;100.00
58473;BME280;44775;51.564;5.460;2023-02-01T09:55:20;101724.47;;;7.05;100.00
58473;BME280;44775;51.564;5.460;2023-02-01T09:57:53;101722.34;;;6.99;98.98
58473;BME280;44775;51.564;5.460;2023-02-01T10:00:29;101710.00;;;7.09;99.21
58473;BME280;44775;51.564;5.460;2023-02-01T10:02:56;101709.13;;;7.20;99.83
58473;BME280;44775;51.564;5.460;2023-02-01T10:11:27;101710.00;;;7.73;98.44
58473;BME280;44775;51.564;5.460;2023-02-01T10:14:10;101718.22;;;8.12;95.46
58473;BME280;44775;51.564;5.460;2023-02-01T10:19:29;101736.38;;;8.49;92.23
58473;BME280;44775;51.564;5.460;2023-02-01T10:22:02;101734.03;;;8.56;90.86
58473;BME280;44775;51.564;5.460;2023-02-01T10:24:49;101728.53;;;8.57;90.79
58473;BME280;44775;51.564;5.460;2023-02-01T10:27:29;101727.81;;;8.24;91.60
58473;BME280;44775;51.564;5.460;2023-02-01T10:30:05;101733.34;;;8.12;91.50
58473;BME280;44775;51.564;5.460;2023-02-01T10:32:35;101732.84;;;7.97;93.50
58473;BME280;44775;51.564;5.460;2023-02-01T10:35:52;101744.50;;;8.05;91.66
58473;BME280;44775;51.564;5.460;2023-02-01T10:37:51;101718.38;;;7.90;93.53
58473;BME280;44775;51.564;5.460;2023-02-01T10:40:24;101746.78;;;7.89;91.94
58473;BME280;44775;51.564;5.460;2023-02-01T10:43:00;101751.75;;;7.82;92.01
58473;BME280;44775;51.564;5.460;2023-02-01T10:45:29;101742.31;;;8.11;89.99
58473;BME280;44775;51.564;5.460;2023-02-01T10:47:57;101732.50;;;8.11;89.05
58473;BME280;44775;51.564;5.460;2023-02-01T10:50:58;101742.06;;;8.14;88.22
58473;BME280;44775;51.564;5.460;2023-02-01T10:56:09;101712.44;;;7.86;89.18
58473;BME280;44775;51.564;5.460;2023-02-01T10:58:42;101704.13;;;7.79;89.85
58473;BME280;44775;51.564;5.460;2023-02-01T11:01:16;101723.03;;;7.76;88.88
58473;BME280;44775;51.564;5.460;2023-02-01T11:03:44;101713.75;;;7.71;89.94
58473;BME280;44775;51.564;5.460;2023-02-01T11:08:42;101701.41;;;7.70;90.16
58473;BME280;44775;51.564;5.460;2023-02-01T11:11:09;101705.00;;;7.80;89.28
58473;BME280;44775;51.564;5.460;2023-02-01T11:13:37;101702.44;;;7.78;89.12
58473;BME280;44775;51.564;5.460;2023-02-01T11:16:05;101688.03;;;7.60;90.52
58473;BME280;44775;51.564;5.460;2023-02-01T11:18:34;101689.44;;;7.43;92.04
58473;BME280;44775;51.564;5.460;2023-02-01T11:21:01;101684.97;;;7.44;92.44
58473;BME280;44775;51.564;5.460;2023-02-01T11:23:29;101692.22;;;7.42;91.55
58473;BME280;44775;51.564;5.460;2023-02-01T11:26:07;101690.13;;;7.24;94.06
58473;BME280;44775;51.564;5.460;2023-02-01T11:28:35;101688.53;;;7.33;91.57
58473;BME280;44775;51.564;5.460;2023-02-01T11:31:06;101674.66;;;7.50;92.26
58473;BME280;44775;51.564;5.460;2023-02-01T11:33:36;101675.50;;;7.51;93.39
58473;BME280;44775;51.564;5.460;2023-02-01T11:36:13;101694.47;;;7.57;91.99
58473;BME280;44775;51.564;5.460;2023-02-01T11:39:07;101679.34;;;7.58;91.59
58473;BME280;44775;51.564;5.460;2023-02-01T11:41:31;101678.34;;;7.59;91.70
58473;BME280;44775;51.564;5.460;2023-02-01T11:44:00;101675.00;;;7.57;91.57
58473;BME280;44775;51.564;5.460;2023-02-01T11:46:32;101664.69;;;7.43;92.07
58473;BME280;44775;51.564;5.460;2023-02-01T11:49:19;101676.00;;;7.45;92.54
58473;BME280;44775;51.564;5.460;2023-02-01T11:57:41;101674.78;;;7.49;92.80
58473;BME280;44775;51.564;5.460;2023-02-01T12:03:08;101678.22;;;7.40;92.96
58473;BME280;44775;51.564;5.460;2023-02-01T12:08:49;101655.06;;;7.51;92.69
58473;BME280;44775;51.564;5.460;2023-02-01T12:19:18;101655.22;;;7.71;91.59
58473;BME280;44775;51.564;5.460;2023-02-01T12:30:47;101657.66;;;7.63;93.29
58473;BME280;44775;51.564;5.460;2023-02-01T12:39:07;101648.97;;;7.61;93.38
58473;BME280;44775;51.564;5.460;2023-02-01T12:42:03;101647.50;;;7.68;92.31
58473;BME280;44775;51.564;5.460;2023-02-01T12:44:41;101654.88;;;7.64;92.83
58473;BME280;44775;51.564;5.460;2023-02-01T12:47:20;101634.00;;;7.60;91.61
58473;BME280;44775;51.564;5.460;2023-02-01T12:49:53;101653.38;;;7.71;90.91
58473;BME280;44775;51.564;5.460;2023-02-01T12:52:44;101650.06;;;7.58;90.77
58473;BME280;44775;51.564;5.460;2023-02-01T12:55:36;101646.56;;;7.78;90.52
58473;BME280;44775;51.564;5.460;2023-02-01T12:58:12;101632.00;;;7.73;91.35
58473;BME280;44775;51.564;5.460;2023-02-01T13:01:02;101640.78;;;7.94;89.58
58473;BME280;44775;51.564;5.460;2023-02-01T13:03:39;101632.91;;;7.93;91.39
58473;BME280;44775;51.564;5.460;2023-02-01T13:06:10;101630.78;;;8.08;90.63
58473;BME280;44775;51.564;5.460;2023-02-01T13:21:40;101622.38;;;8.43;89.79
58473;BME280;44775;51.564;5.460;2023-02-01T13:24:27;101634.06;;;8.61;87.84
58473;BME280;44775;51.564;5.460;2023-02-01T13:26:54;101629.19;;;8.76;85.50
58473;BME280;44775;51.564;5.460;2023-02-01T13:29:21;101619.38;;;8.86;88.97
58473;BME280;44775;51.564;5.460;2023-02-01T13:40:33;101644.66;;;9.21;86.09
58473;BME280;44775;51.564;5.460;2023-02-01T13:43:17;101630.19;;;9.14;85.15
58473;BME280;44775;51.564;5.460;2023-02-01T13:45:50;101636.66;;;9.02;87.02
58473;BME280;44775;51.564;5.460;2023-02-01T13:48:28;101649.56;;;8.96;87.15
58473;BME280;44775;51.564;5.460;2023-02-01T13:50:58;101645.31;;;8.74;87.82
58473;BME280;44775;51.564;5.460;2023-02-01T13:53:36;101655.41;;;8.71;86.04
58473;BME280;44775;51.564;5.460;2023-02-01T13:56:19;101654.81;;;8.58;86.57
58473;BME280;44775;51.564;5.460;2023-02-01T13:58:46;101653.94;;;8.57;87.59
58473;BME280;44775;51.564;5.460;2023-02-01T14:03:53;101647.81;;;8.66;87.01
58473;BME280;44775;51.564;5.460;2023-02-01T14:11:43;101654.97;;;8.35;88.16
58473;BME280;44775;51.564;5.460;2023-02-01T14:16:41;101651.41;;;8.46;89.15
58473;BME280;44775;51.564;5.460;2023-02-01T14:19:27;101658.44;;;8.57;88.39
58473;BME280;44775;51.564;5.460;2023-02-01T14:24:53;101629.53;;;8.42;88.63
58473;BME280;44775;51.564;5.460;2023-02-01T14:27:25;101656.16;;;8.42;89.12
58473;BME280;44775;51.564;5.460;2023-02-01T14:30:01;101656.34;;;8.50;88.76
58473;BME280;44775;51.564;5.460;2023-02-01T14:32:40;101655.50;;;8.29;92.56
58473;BME280;44775;51.564;5.460;2023-02-01T14:35:20;101661.81;;;8.28;90.32
58473;BME280;44775;51.564;5.460;2023-02-01T14:37:50;101656.94;;;8.33;89.67
58473;BME280;44775;51.564;5.460;2023-02-01T14:40:26;101654.41;;;8.32;91.11
58473;BME280;44775;51.564;5.460;2023-02-01T14:42:52;101661.50;;;8.21;92.36
58473;BME280;44775;51.564;5.460;2023-02-01T15:01:02;101665.50;;;8.06;91.79
58473;BME280;44775;51.564;5.460;2023-02-01T15:06:52;101661.25;;;7.94;92.80
58473;BME280;44775;51.564;5.460;2023-02-01T15:09:32;101665.31;;;7.98;93.52
58473;BME280;44775;51.564;5.460;2023-02-01T15:14:38;101670.72;;;7.87;93.84
58473;BME280;44775;51.564;5.460;2023-02-01T15:17:18;101670.22;;;8.02;93.15
58473;BME280;44775;51.564;5.460;2023-02-01T15:22:19;101676.88;;;7.87;94.16
58473;BME280;44775;51.564;5.460;2023-02-01T15:24:52;101672.66;;;7.85;93.68
58473;BME280;44775;51.564;5.460;2023-02-01T15:27:18;101670.72;;;7.87;92.73
58473;BME280;44775;51.564;5.460;2023-02-01T15:29:44;101677.50;;;7.79;94.31
58473;BME280;44775;51.564;5.460;2023-02-01T15:32:31;101683.03;;;7.88;93.97
58473;BME280;44775;51.564;5.460;2023-02-01T15:34:58;101687.72;;;7.95;92.19